Washington Executive test (W32)
Clinton, MD
Field Elevation: 249
Lat: 38°44.89N  Long: 76°55.97W
CTAF/Unicom Freq: 122.8000
   
    
Weather Advisories
2015-05-25   21:18 Z
Altimeter 30.26" Hg
Wind 217° @ 10 KT
Gusts 15 KT
Temperature 27° C (81° F)
Dewpoint -9° C (16° F)
Relative Humidity 9%
Density Altitude 1,426 feet
Condensation Altitude 13,382 feet
Heat Index: 26° C (79° F)
Wind and Runways
Indicated Runway = 23
Headwind = 10 kt
Crosswind = 2 kt
History
 
 
 
More Info
All DigiWx sites map
Weather Radar
NOAA Forecast
 
Airport IQ 5010
(HMIEM) Shock Trauma Ctr
(26N) Ocean City
 
about DigiWx
 
FAA Disclaimer: The data displayed is for advisory purposes only and is not to be used for flight planning or operations. For official data, please call (not available) to hear the current automated AWOS voice message.
  METAR W32 252118Z AUTO 22010G15KT 27/M09 A3026